createdAt,value
2019-04-07T00:00:37.136Z,23.40
2019-04-07T00:01:36.853Z,23.40
2019-04-07T00:02:36.834Z,23.70
2019-04-07T00:03:37.410Z,22.60
2019-04-07T00:04:37.308Z,22.60
2019-04-07T00:05:36.819Z,23.90
2019-04-07T00:06:37.324Z,23.20
2019-04-07T00:07:36.791Z,22.70
2019-04-07T00:08:36.798Z,23.20
2019-04-07T00:09:37.151Z,23.30
2019-04-07T00:10:36.800Z,24.60
2019-04-07T00:11:36.738Z,24.00
2019-04-07T00:12:36.954Z,23.50
2019-04-07T00:13:36.731Z,24.10
2019-04-07T00:14:36.702Z,23.60
2019-04-07T00:15:36.693Z,23.00
2019-04-07T00:16:36.768Z,24.80
2019-04-07T00:17:36.663Z,22.60
2019-04-07T00:18:36.679Z,24.30
2019-04-07T00:19:36.645Z,24.40
2019-04-07T00:20:36.632Z,23.90
2019-04-07T00:21:36.640Z,23.90
2019-04-07T00:22:36.811Z,24.10
2019-04-07T00:23:36.605Z,23.40
2019-04-07T00:24:36.595Z,23.80
2019-04-07T00:25:36.587Z,23.80
2019-04-07T00:26:36.592Z,24.50
2019-04-07T00:27:36.871Z,24.50
2019-04-07T00:28:36.773Z,25.30
2019-04-07T00:29:36.674Z,24.20
2019-04-07T00:30:36.529Z,24.30
2019-04-07T00:31:36.534Z,25.10
2019-04-07T00:32:36.501Z,24.30
2019-04-07T00:33:36.495Z,25.30
2019-04-07T00:34:36.882Z,24.90
2019-04-07T00:35:36.576Z,24.20
2019-04-07T00:36:36.490Z,24.40
2019-04-07T00:37:36.456Z,24.50
2019-04-07T00:38:36.436Z,24.10
2019-04-07T00:39:36.430Z,24.70
2019-04-07T00:40:37.068Z,25.00
2019-04-07T00:41:36.486Z,24.10
2019-04-07T00:42:36.419Z,24.00
2019-04-07T00:43:36.410Z,23.80
2019-04-07T00:44:36.374Z,23.50
2019-04-07T00:45:36.973Z,24.20
2019-04-07T00:46:36.459Z,23.80
2019-04-07T00:47:36.362Z,24.00
2019-04-07T00:48:36.477Z,24.70
2019-04-07T00:49:36.889Z,24.00
2019-04-07T00:50:36.311Z,24.60
2019-04-07T00:51:36.312Z,23.50
2019-04-07T00:52:36.309Z,22.50
2019-04-07T00:53:36.648Z,24.50
2019-04-07T00:54:36.998Z,23.70
2019-04-07T00:55:36.254Z,22.70
2019-04-07T00:56:36.306Z,24.20
2019-04-07T00:57:36.357Z,23.90
2019-04-07T00:58:36.897Z,23.60
2019-04-07T00:59:36.205Z,22.80
2019-04-07T01:00:36.633Z,23.60
2019-04-07T01:01:36.185Z,22.90
2019-04-07T01:02:36.546Z,22.90
2019-04-07T01:03:36.159Z,22.80
2019-04-07T01:04:36.454Z,23.00
2019-04-07T01:05:38.897Z,22.80
2019-04-07T01:06:36.142Z,23.90
2019-04-07T01:07:36.164Z,21.80
2019-04-07T01:08:36.169Z,23.20
2019-04-07T01:09:36.098Z,22.80
2019-04-07T01:10:36.125Z,22.30
2019-04-07T01:11:36.308Z,21.70
2019-04-07T01:12:36.063Z,22.80
2019-04-07T01:13:36.273Z,23.30
2019-04-07T01:14:36.042Z,21.90
2019-04-07T01:15:36.039Z,22.30
2019-04-07T01:16:36.241Z,22.50
2019-04-07T01:17:36.009Z,22.00
2019-04-07T01:18:36.031Z,21.70
2019-04-07T01:19:36.562Z,21.90
2019-04-07T01:20:35.979Z,21.50
2019-04-07T01:21:35.969Z,21.90
2019-04-07T01:22:36.396Z,22.10
2019-04-07T01:23:36.383Z,21.80
2019-04-07T01:24:36.400Z,20.20
2019-04-07T01:25:35.921Z,21.30
2019-04-07T01:26:35.921Z,21.20
2019-04-07T01:27:35.914Z,21.50
2019-04-07T01:28:36.315Z,20.80
2019-04-07T01:29:36.443Z,20.20
2019-04-07T01:30:35.876Z,20.90
2019-04-07T01:31:36.221Z,21.40
2019-04-07T01:32:35.846Z,21.70
2019-04-07T01:33:35.838Z,21.00
2019-04-07T01:34:36.143Z,21.30
2019-04-07T01:35:44.944Z,21.40
2019-04-07T01:36:36.973Z,21.50
2019-04-07T01:37:36.255Z,21.70
2019-04-07T01:38:35.817Z,21.20
2019-04-07T01:39:35.798Z,21.20
2019-04-07T01:40:36.403Z,21.90
2019-04-07T01:41:35.743Z,20.50
2019-04-07T01:42:35.737Z,22.50
2019-04-07T01:43:35.736Z,21.30
2019-04-07T01:44:35.730Z,21.70
2019-04-07T01:45:35.702Z,21.10
2019-04-07T01:46:35.689Z,20.70
2019-04-07T01:47:35.677Z,21.30
2019-04-07T01:48:35.697Z,21.20
2019-04-07T01:49:35.998Z,21.70
2019-04-07T01:50:36.286Z,20.10
2019-04-07T01:51:35.628Z,20.90
2019-04-07T01:52:36.457Z,21.00
2019-04-07T01:53:35.675Z,20.30
2019-04-07T01:54:36.220Z,20.80
2019-04-07T01:55:35.770Z,22.10
2019-04-07T01:56:36.226Z,22.40
2019-04-07T01:57:35.566Z,22.40
2019-04-07T01:58:35.605Z,22.00
2019-04-07T01:59:35.572Z,23.70
2019-04-07T02:00:35.552Z,23.40
2019-04-07T02:01:36.285Z,23.70
2019-04-07T02:02:35.608Z,23.20
2019-04-07T02:03:35.773Z,23.60
2019-04-07T02:04:35.859Z,24.60
2019-04-07T02:05:35.497Z,23.00
2019-04-07T02:06:35.462Z,24.70
2019-04-07T02:07:35.903Z,23.00
2019-04-07T02:08:35.451Z,24.60
2019-04-07T02:09:35.434Z,24.50
2019-04-07T02:10:35.439Z,24.20
2019-04-07T02:11:35.412Z,24.90
2019-04-07T02:12:35.401Z,23.60
2019-04-07T02:13:36.158Z,24.10
2019-04-07T02:14:35.536Z,23.60
2019-04-07T02:15:35.554Z,23.10
2019-04-07T02:16:35.654Z,24.00
2019-04-07T02:17:35.354Z,23.30
2019-04-07T02:18:35.445Z,24.70
2019-04-07T02:19:35.939Z,24.50
2019-04-07T02:20:35.356Z,23.90
2019-04-07T02:21:35.993Z,24.00
2019-04-07T02:22:35.449Z,24.30
2019-04-07T02:23:35.277Z,23.80
2019-04-07T02:24:35.655Z,24.20
2019-04-07T02:25:35.279Z,24.30
2019-04-07T02:26:35.252Z,23.40
2019-04-07T02:27:36.075Z,23.30
2019-04-07T02:28:35.798Z,24.50
2019-04-07T02:29:35.826Z,23.90
2019-04-07T02:30:35.433Z,24.10
2019-04-07T02:31:35.939Z,23.50
2019-04-07T02:32:35.681Z,22.70
2019-04-07T02:33:35.166Z,23.60
2019-04-07T02:34:36.023Z,23.90
2019-04-07T02:35:35.145Z,24.00
2019-04-07T02:36:35.780Z,23.40
2019-04-07T02:37:35.280Z,24.10
2019-04-07T02:38:35.112Z,22.80
2019-04-07T02:39:35.105Z,23.00
2019-04-07T02:40:35.120Z,23.60
2019-04-07T02:41:35.097Z,22.40
2019-04-07T02:42:35.072Z,22.70
2019-04-07T02:43:35.241Z,22.60
2019-04-07T02:44:35.056Z,22.10
2019-04-07T02:45:35.034Z,21.20
2019-04-07T02:46:35.201Z,21.30
2019-04-07T02:47:35.336Z,21.50
2019-04-07T02:48:35.205Z,21.00
2019-04-07T02:49:35.602Z,20.10
2019-04-07T02:50:35.027Z,20.40
2019-04-07T02:51:35.132Z,19.20
2019-04-07T02:52:35.706Z,19.20
2019-04-07T02:53:35.043Z,20.40
2019-04-07T02:54:35.915Z,20.30
2019-04-07T02:55:35.586Z,19.80
2019-04-07T02:56:35.683Z,19.20
2019-04-07T02:57:35.885Z,18.90
2019-04-07T02:58:35.819Z,19.10
2019-04-07T02:59:35.345Z,18.40
2019-04-07T03:00:34.886Z,18.60
2019-04-07T03:01:35.132Z,20.00
2019-04-07T03:02:34.895Z,19.80
2019-04-07T03:03:34.842Z,19.20
2019-04-07T03:04:34.837Z,19.90
2019-04-07T03:05:34.836Z,19.10
2019-04-07T03:06:45.336Z,19.30
2019-04-07T03:07:36.051Z,19.20
2019-04-07T03:08:35.603Z,19.10
2019-04-07T03:09:34.967Z,19.40
2019-04-07T03:10:35.120Z,19.20
2019-04-07T03:11:35.371Z,19.40
2019-04-07T03:12:34.756Z,19.90
2019-04-07T03:13:35.085Z,20.60
2019-04-07T03:14:34.719Z,22.10
2019-04-07T03:15:34.733Z,22.60
2019-04-07T03:16:35.525Z,23.40
2019-04-07T03:17:34.951Z,23.60
2019-04-07T03:18:35.771Z,24.10
2019-04-07T03:19:34.661Z,23.10
2019-04-07T03:20:34.646Z,23.70
2019-04-07T03:21:35.120Z,22.60
2019-04-07T03:22:34.654Z,23.10
2019-04-07T03:23:35.077Z,24.20
2019-04-07T03:24:34.836Z,22.50
2019-04-07T03:25:35.515Z,24.00
2019-04-07T03:26:34.595Z,24.10
2019-04-07T03:27:34.572Z,23.50
2019-04-07T03:28:34.709Z,22.30
2019-04-07T03:29:35.024Z,24.00
2019-04-07T03:30:37.571Z,24.20
2019-04-07T03:31:36.290Z,23.60
2019-04-07T03:32:37.408Z,22.70
2019-04-07T03:33:37.919Z,23.80
2019-04-07T03:34:36.535Z,23.60
2019-04-07T03:35:35.303Z,23.20
2019-04-07T03:37:01.478Z,24.60
2019-04-07T03:37:42.737Z,23.60
2019-04-07T03:38:36.530Z,24.40
2019-04-07T03:39:34.434Z,23.60
2019-04-07T03:40:34.427Z,23.90
2019-04-07T03:41:35.044Z,24.30
2019-04-07T03:42:34.422Z,24.00
2019-04-07T03:43:34.656Z,23.60
2019-04-07T03:44:34.475Z,23.90
2019-04-07T03:45:34.372Z,23.00
2019-04-07T03:46:34.656Z,23.60
2019-04-07T03:47:35.169Z,23.70
2019-04-07T03:48:35.325Z,22.80
2019-04-07T03:49:35.170Z,24.20
2019-04-07T03:50:34.676Z,24.40
2019-04-07T03:51:34.422Z,23.90
2019-04-07T03:52:35.363Z,23.90
2019-04-07T03:53:34.297Z,24.10
2019-04-07T03:54:34.292Z,24.10
2019-04-07T03:55:35.045Z,24.10
2019-04-07T03:56:34.412Z,24.10
2019-04-07T03:57:34.264Z,23.60
2019-04-07T03:58:34.376Z,23.20
2019-04-07T03:59:35.156Z,23.10
2019-04-07T04:00:34.207Z,24.20
2019-04-07T04:01:35.392Z,22.80
2019-04-07T04:02:34.513Z,22.80
2019-04-07T04:03:34.363Z,23.20
2019-04-07T04:04:34.335Z,23.40
2019-04-07T04:05:34.255Z,23.80
2019-04-07T04:06:34.265Z,22.10
2019-04-07T04:07:37.028Z,23.00
2019-04-07T04:08:35.021Z,22.20
2019-04-07T04:09:37.774Z,21.50
2019-04-07T04:10:35.113Z,21.40
2019-04-07T04:11:34.318Z,22.30
2019-04-07T04:12:34.285Z,21.20
2019-04-07T04:13:34.337Z,20.90
2019-04-07T04:14:34.709Z,20.80
2019-04-07T04:15:34.059Z,21.10
2019-04-07T04:16:34.204Z,21.70
2019-04-07T04:17:34.668Z,21.40
2019-04-07T04:18:34.011Z,20.80
2019-04-07T04:19:34.848Z,21.30
2019-04-07T04:20:34.676Z,20.40
2019-04-07T04:21:34.143Z,20.30
2019-04-07T04:22:34.011Z,21.00
2019-04-07T04:23:33.974Z,21.20
2019-04-07T04:24:34.967Z,20.30
2019-04-07T04:25:34.164Z,20.90
2019-04-07T04:26:34.369Z,20.80
2019-04-07T04:27:35.059Z,21.10
2019-04-07T04:28:34.738Z,19.70
2019-04-07T04:29:33.888Z,20.60
2019-04-07T04:30:34.046Z,20.50
2019-04-07T04:31:33.929Z,19.80
2019-04-07T04:32:34.008Z,20.60
2019-04-07T04:33:33.839Z,20.30
2019-04-07T04:34:34.642Z,19.70
2019-04-07T04:35:34.018Z,20.10
2019-04-07T04:36:33.848Z,19.70
2019-04-07T04:37:41.621Z,20.20
2019-04-07T04:38:34.783Z,19.80
2019-04-07T04:39:33.800Z,19.90
2019-04-07T04:40:33.795Z,19.90
2019-04-07T04:41:33.755Z,19.30
2019-04-07T04:42:33.959Z,19.70
2019-04-07T04:43:34.046Z,20.90
2019-04-07T04:44:33.960Z,20.20
2019-04-07T04:45:33.849Z,20.60
2019-04-07T04:46:34.443Z,20.00
2019-04-07T04:47:34.006Z,20.10
2019-04-07T04:48:33.879Z,19.30
2019-04-07T04:49:33.665Z,19.50
2019-04-07T04:50:33.679Z,20.60
2019-04-07T04:51:37.027Z,19.20
2019-04-07T04:52:34.634Z,19.90
2019-04-07T04:53:33.687Z,20.40
2019-04-07T04:54:33.631Z,19.50
2019-04-07T04:55:33.823Z,20.40
2019-04-07T04:56:33.619Z,20.20
2019-04-07T04:57:33.980Z,19.70
2019-04-07T04:58:33.569Z,19.60
2019-04-07T04:59:33.549Z,20.20
2019-04-07T05:00:34.075Z,19.40
2019-04-07T05:01:34.402Z,21.10
2019-04-07T05:02:33.719Z,20.00
2019-04-07T05:03:33.888Z,20.40
2019-04-07T05:04:34.102Z,19.70
2019-04-07T05:05:33.510Z,20.30
2019-04-07T05:06:33.511Z,19.80
2019-04-07T05:07:41.965Z,20.10
2019-04-07T05:08:34.450Z,19.80
2019-04-07T05:09:41.845Z,19.10
2019-04-07T05:10:34.871Z,19.80
2019-04-07T05:11:33.694Z,20.30
2019-04-07T05:12:33.573Z,19.60
2019-04-07T05:13:34.106Z,19.90
2019-04-07T05:14:33.393Z,19.80
2019-04-07T05:15:34.171Z,20.00
2019-04-07T05:16:33.378Z,20.20
2019-04-07T05:17:33.580Z,20.10
2019-04-07T05:18:33.344Z,20.10
2019-04-07T05:19:33.438Z,20.60
2019-04-07T05:20:33.317Z,19.50
2019-04-07T05:21:33.921Z,20.60
2019-04-07T05:22:33.327Z,20.10
2019-04-07T05:23:33.333Z,20.80
2019-04-07T05:24:33.425Z,19.20
2019-04-07T05:25:33.782Z,19.80
2019-04-07T05:26:33.246Z,19.60
2019-04-07T05:27:33.717Z,19.30
2019-04-07T05:28:36.779Z,18.90
2019-04-07T05:29:33.947Z,19.70
2019-04-07T05:30:33.650Z,19.40
2019-04-07T05:31:33.712Z,19.90
2019-04-07T05:32:33.394Z,20.00
2019-04-07T05:33:33.171Z,20.20
2019-04-07T05:34:33.402Z,19.90
2019-04-07T05:35:33.150Z,19.20
2019-04-07T05:36:33.143Z,19.10
2019-04-07T05:37:33.143Z,20.10
2019-04-07T05:38:33.113Z,19.60
2019-04-07T05:39:33.102Z,19.90
2019-04-07T05:40:33.098Z,19.20
2019-04-07T05:41:33.734Z,19.00
2019-04-07T05:42:33.078Z,19.50
2019-04-07T05:43:33.757Z,19.60
2019-04-07T05:44:33.184Z,19.30
2019-04-07T05:45:33.774Z,19.50
2019-04-07T05:46:33.561Z,19.60
2019-04-07T05:47:33.085Z,19.60
2019-04-07T05:48:33.760Z,19.50
2019-04-07T05:49:33.447Z,19.60
2019-04-07T05:50:33.460Z,19.80
2019-04-07T05:51:32.974Z,19.20
2019-04-07T05:52:37.845Z,20.30
2019-04-07T05:53:34.492Z,19.50
2019-04-07T05:54:32.943Z,20.90
2019-04-07T05:55:33.433Z,23.00
2019-04-07T05:56:32.919Z,20.40
2019-04-07T05:57:34.673Z,20.80
2019-04-07T05:58:35.164Z,20.40
2019-04-07T05:59:32.882Z,20.20
2019-04-07T06:00:32.885Z,20.60
2019-04-07T06:01:33.432Z,19.20
2019-04-07T06:02:34.101Z,20.20
2019-04-07T06:03:33.009Z,19.20
2019-04-07T06:04:32.827Z,19.70
2019-04-07T06:05:33.431Z,19.90
2019-04-07T06:06:33.040Z,20.30
2019-04-07T06:07:35.970Z,19.90
2019-04-07T06:08:38.718Z,19.80
2019-04-07T06:09:34.015Z,20.20
2019-04-07T06:10:32.806Z,19.20
2019-04-07T06:11:35.167Z,19.40
2019-04-07T06:12:32.890Z,19.50
2019-04-07T06:13:32.955Z,18.80
2019-04-07T06:14:33.350Z,20.10
2019-04-07T06:15:33.485Z,19.80
2019-04-07T06:16:33.363Z,19.90
2019-04-07T06:17:32.682Z,19.00
2019-04-07T06:18:34.176Z,20.00
2019-04-07T06:19:32.665Z,18.60
2019-04-07T06:20:33.249Z,19.10
2019-04-07T06:21:33.343Z,18.70
2019-04-07T06:22:32.631Z,19.10
2019-04-07T06:23:33.153Z,18.90
2019-04-07T06:24:34.344Z,19.00
2019-04-07T06:25:37.819Z,16.20
2019-04-07T06:26:34.156Z,13.70
2019-04-07T06:27:32.626Z,14.30
2019-04-07T06:28:32.698Z,13.90
2019-04-07T06:29:33.332Z,12.60
2019-04-07T06:30:33.930Z,13.10
2019-04-07T06:31:33.840Z,12.30
2019-04-07T06:32:34.675Z,12.30
2019-04-07T06:33:34.695Z,11.70
2019-04-07T06:34:33.792Z,11.80
2019-04-07T06:35:32.510Z,11.50
2019-04-07T06:36:32.854Z,10.80
2019-04-07T06:37:33.088Z,11.20
2019-04-07T06:38:34.926Z,11.00
2019-04-07T06:39:32.473Z,10.80
2019-04-07T06:40:32.474Z,10.60
2019-04-07T06:41:33.157Z,11.00
2019-04-07T06:42:34.103Z,10.20
2019-04-07T06:43:35.167Z,10.50
2019-04-07T06:44:32.393Z,10.80
2019-04-07T06:45:33.280Z,10.20
2019-04-07T06:46:32.374Z,10.30
2019-04-07T06:47:33.395Z,10.40
2019-04-07T06:48:33.003Z,9.70
2019-04-07T06:49:32.809Z,9.60
2019-04-07T06:50:39.412Z,10.80
2019-04-07T06:51:33.498Z,9.70
2019-04-07T06:52:37.058Z,10.10
2019-04-07T06:53:33.809Z,10.80
2019-04-07T06:54:32.964Z,10.10
2019-04-07T06:55:33.298Z,9.90
2019-04-07T06:56:34.165Z,10.00
2019-04-07T06:57:35.033Z,10.10
2019-04-07T06:58:32.252Z,9.80
2019-04-07T06:59:32.831Z,10.00
2019-04-07T07:00:32.230Z,9.80
2019-04-07T07:01:32.317Z,9.40
2019-04-07T07:02:32.837Z,9.50
2019-04-07T07:03:36.062Z,9.70
2019-04-07T07:04:33.170Z,10.20
2019-04-07T07:05:34.937Z,10.00
2019-04-07T07:06:32.164Z,10.20
2019-04-07T07:07:32.609Z,9.80
2019-04-07T07:08:42.550Z,9.50
2019-04-07T07:09:33.408Z,9.70
2019-04-07T07:10:35.628Z,9.00
2019-04-07T07:11:34.673Z,9.60
2019-04-07T07:12:38.389Z,9.50
2019-04-07T07:13:35.340Z,10.00
2019-04-07T07:14:40.514Z,9.80
2019-04-07T07:15:35.387Z,10.20
2019-04-07T07:16:32.236Z,9.90
2019-04-07T07:17:32.319Z,9.90
2019-04-07T07:18:32.267Z,9.40
2019-04-07T07:19:32.724Z,9.50
2019-04-07T07:20:32.731Z,9.20
2019-04-07T07:21:36.484Z,10.00
2019-04-07T07:22:33.627Z,9.50
2019-04-07T07:23:32.081Z,8.90
2019-04-07T07:24:32.624Z,8.70
2019-04-07T07:25:33.183Z,9.10
2019-04-07T07:26:35.072Z,9.40
2019-04-07T07:27:32.691Z,9.60
2019-04-07T07:28:32.583Z,9.10
2019-04-07T07:29:32.111Z,8.90
2019-04-07T07:30:32.442Z,8.80
2019-04-07T07:31:31.875Z,9.20
2019-04-07T07:32:35.553Z,8.80
2019-04-07T07:33:33.439Z,8.10
2019-04-07T07:34:32.409Z,8.70
2019-04-07T07:35:32.318Z,8.40
2019-04-07T07:36:31.815Z,8.70
2019-04-07T07:37:31.830Z,8.60
2019-04-07T07:38:32.715Z,8.80
2019-04-07T07:39:31.783Z,8.20
2019-04-07T07:40:34.088Z,8.70
2019-04-07T07:41:31.779Z,8.50
2019-04-07T07:42:32.133Z,7.80
2019-04-07T07:43:31.939Z,8.40
2019-04-07T07:44:35.861Z,7.80
2019-04-07T07:45:32.994Z,7.80
2019-04-07T07:46:32.315Z,7.30
2019-04-07T07:47:31.726Z,7.70
2019-04-07T07:48:32.222Z,7.40
2019-04-07T07:49:35.144Z,7.50
2019-04-07T07:50:36.758Z,7.70
2019-04-07T07:51:32.648Z,7.20
2019-04-07T07:52:31.858Z,6.40
2019-04-07T07:53:31.681Z,7.10
2019-04-07T07:54:31.694Z,6.80
2019-04-07T07:55:35.924Z,6.60
2019-04-07T07:56:32.595Z,7.10
2019-04-07T07:57:31.755Z,7.00
2019-04-07T07:58:33.387Z,7.00
2019-04-07T07:59:34.682Z,6.50
2019-04-07T08:00:37.164Z,6.60
2019-04-07T08:01:33.224Z,7.10
2019-04-07T08:02:31.917Z,7.00
2019-04-07T08:03:31.564Z,7.30
2019-04-07T08:04:31.606Z,7.00
2019-04-07T08:05:33.477Z,7.30
2019-04-07T08:06:31.729Z,7.10
2019-04-07T08:07:31.478Z,6.70
2019-04-07T08:08:31.503Z,6.30
2019-04-07T08:09:31.782Z,6.50
2019-04-07T08:10:31.461Z,6.80
2019-04-07T08:11:33.587Z,6.90
2019-04-07T08:12:34.430Z,6.30
2019-04-07T08:13:32.423Z,6.80
2019-04-07T08:14:31.566Z,6.30
2019-04-07T08:15:33.216Z,7.00
2019-04-07T08:16:31.538Z,6.80
2019-04-07T08:17:33.805Z,6.90
2019-04-07T08:18:31.389Z,6.70
2019-04-07T08:19:31.804Z,6.70
2019-04-07T08:20:31.744Z,6.50
2019-04-07T08:21:31.594Z,6.80
2019-04-07T08:22:36.567Z,6.80
2019-04-07T08:23:32.330Z,7.10
2019-04-07T08:24:31.480Z,7.10
2019-04-07T08:25:31.277Z,7.00
2019-04-07T08:26:31.855Z,7.00
2019-04-07T08:27:32.265Z,7.20
2019-04-07T08:28:33.669Z,7.20
2019-04-07T08:29:31.268Z,6.50
2019-04-07T08:30:31.796Z,7.00
2019-04-07T08:31:31.544Z,6.70
2019-04-07T08:32:33.047Z,6.90
2019-04-07T08:33:31.195Z,6.40
2019-04-07T08:34:32.928Z,7.10
2019-04-07T08:35:35.709Z,6.50
2019-04-07T08:36:32.662Z,6.30
2019-04-07T08:37:31.200Z,6.70
2019-04-07T08:38:31.151Z,6.50
2019-04-07T08:39:33.567Z,6.80
2019-04-07T08:40:31.114Z,7.40
2019-04-07T08:41:31.276Z,8.10
2019-04-07T08:42:31.467Z,8.30
2019-04-07T08:43:31.913Z,8.40
2019-04-07T08:44:31.589Z,8.50
2019-04-07T08:45:32.700Z,7.60
2019-04-07T08:46:32.200Z,8.30
2019-04-07T08:47:31.262Z,7.80
2019-04-07T08:48:31.029Z,7.60
2019-04-07T08:49:32.747Z,7.90
2019-04-07T08:50:31.088Z,8.10
2019-04-07T08:51:32.508Z,7.10
2019-04-07T08:52:31.611Z,7.70
2019-04-07T08:53:31.697Z,7.20
2019-04-07T08:54:31.838Z,6.90
2019-04-07T08:55:30.996Z,6.60
2019-04-07T08:56:31.044Z,6.70
2019-04-07T08:57:32.315Z,6.50
2019-04-07T08:58:36.118Z,6.60
2019-04-07T08:59:32.491Z,6.70
2019-04-07T09:00:31.607Z,7.00
2019-04-07T09:01:31.528Z,7.60
2019-04-07T09:02:31.258Z,7.20
2019-04-07T09:03:31.443Z,7.30
2019-04-07T09:04:30.853Z,6.70
2019-04-07T09:05:31.289Z,7.10
2019-04-07T09:06:31.562Z,6.80
2019-04-07T09:07:33.151Z,6.80
2019-04-07T09:08:30.814Z,6.80
2019-04-07T09:09:35.734Z,6.40
2019-04-07T09:10:33.517Z,6.80
2019-04-07T09:11:32.105Z,7.00
2019-04-07T09:12:32.116Z,6.90
2019-04-07T09:13:33.168Z,6.40
2019-04-07T09:14:30.753Z,6.40
2019-04-07T09:15:31.577Z,6.30
2019-04-07T09:16:31.252Z,6.40
2019-04-07T09:17:38.758Z,6.00
2019-04-07T09:18:32.076Z,5.80
2019-04-07T09:19:30.986Z,5.90
2019-04-07T09:20:31.348Z,5.70
2019-04-07T09:21:38.666Z,6.30
2019-04-07T09:22:32.666Z,6.00
2019-04-07T09:23:31.247Z,5.90
2019-04-07T09:24:32.363Z,5.90
2019-04-07T09:25:32.005Z,5.90
2019-04-07T09:26:30.634Z,6.50
2019-04-07T09:27:31.259Z,5.60
2019-04-07T09:28:31.482Z,5.80
2019-04-07T09:29:31.331Z,5.90
2019-04-07T09:30:30.793Z,5.60
2019-04-07T09:31:31.439Z,5.60
2019-04-07T09:32:30.563Z,5.30
2019-04-07T09:33:31.186Z,5.50
2019-04-07T09:34:30.532Z,5.40
2019-04-07T09:35:30.955Z,5.30
2019-04-07T09:36:32.632Z,5.80
2019-04-07T09:37:31.079Z,4.80
2019-04-07T09:38:30.483Z,4.80
2019-04-07T09:39:32.658Z,4.90
2019-04-07T09:40:31.849Z,5.00
2019-04-07T09:41:30.665Z,5.20
2019-04-07T09:42:30.486Z,5.30
2019-04-07T09:43:31.226Z,5.20
2019-04-07T09:44:33.875Z,5.20
2019-04-07T09:45:31.398Z,5.40
2019-04-07T09:46:31.110Z,5.20
2019-04-07T09:47:30.429Z,5.10
2019-04-07T09:48:30.375Z,4.90
2019-04-07T09:49:30.961Z,4.90
2019-04-07T09:50:30.346Z,5.00
2019-04-07T09:51:30.969Z,5.20
2019-04-07T09:52:30.573Z,5.40
2019-04-07T09:53:30.501Z,5.00
2019-04-07T09:54:30.300Z,5.40
2019-04-07T09:55:30.799Z,5.50
2019-04-07T09:56:32.835Z,5.10
2019-04-07T09:57:30.345Z,5.20
2019-04-07T09:58:30.883Z,4.90
2019-04-07T09:59:30.708Z,4.50
2019-04-07T10:00:30.952Z,4.50
2019-04-07T10:01:30.794Z,4.50
2019-04-07T10:02:34.146Z,4.60
2019-04-07T10:03:31.230Z,4.50
2019-04-07T10:04:30.198Z,4.60
2019-04-07T10:05:30.921Z,4.20
2019-04-07T10:06:30.175Z,4.40
2019-04-07T10:07:30.506Z,4.10
2019-04-07T10:08:30.401Z,4.10
2019-04-07T10:09:30.135Z,4.00
2019-04-07T10:10:30.350Z,3.70
2019-04-07T10:11:30.280Z,4.00
2019-04-07T10:12:30.171Z,3.80
2019-04-07T10:13:30.699Z,4.10
2019-04-07T10:14:30.718Z,3.90
2019-04-07T10:15:30.071Z,4.20
2019-04-07T10:16:31.937Z,3.50
2019-04-07T10:17:30.051Z,3.50
2019-04-07T10:18:32.556Z,3.50
2019-04-07T10:19:30.101Z,3.30
2019-04-07T10:20:30.031Z,3.10
2019-04-07T10:21:30.061Z,2.90
2019-04-07T10:22:30.580Z,2.50
2019-04-07T10:23:30.080Z,2.80
2019-04-07T10:24:30.333Z,2.60
2019-04-07T10:25:30.129Z,2.70
2019-04-07T10:26:30.267Z,2.60
2019-04-07T10:27:31.281Z,2.80
2019-04-07T10:28:29.956Z,2.40
2019-04-07T10:29:30.756Z,2.60
2019-04-07T10:30:30.501Z,2.70
2019-04-07T10:31:30.526Z,2.60
2019-04-07T10:32:29.887Z,2.50
2019-04-07T10:33:30.448Z,2.50
2019-04-07T10:34:29.892Z,2.40
2019-04-07T10:35:30.653Z,2.40
2019-04-07T10:36:29.839Z,2.50
2019-04-07T10:37:30.230Z,2.20
2019-04-07T10:38:30.341Z,2.40
2019-04-07T10:39:30.294Z,2.30
2019-04-07T10:40:29.798Z,2.10
2019-04-07T10:41:30.483Z,2.40
2019-04-07T10:42:29.779Z,2.70
2019-04-07T10:43:30.318Z,2.80
2019-04-07T10:44:30.339Z,2.50
2019-04-07T10:45:29.744Z,2.10
2019-04-07T10:46:30.845Z,2.40
2019-04-07T10:47:30.306Z,2.10
2019-04-07T10:48:29.827Z,2.40
2019-04-07T10:49:29.712Z,2.20
2019-04-07T10:50:30.233Z,2.40
2019-04-07T10:51:29.679Z,2.60
2019-04-07T10:52:29.668Z,2.30
2019-04-07T10:53:31.318Z,2.30
2019-04-07T10:54:29.641Z,2.30
2019-04-07T10:55:29.689Z,2.60
2019-04-07T10:56:29.645Z,2.20
2019-04-07T10:57:29.606Z,2.20
2019-04-07T10:58:29.602Z,2.60
2019-04-07T10:59:30.706Z,2.40
2019-04-07T11:00:30.248Z,2.40
2019-04-07T11:01:29.572Z,2.40
2019-04-07T11:02:29.556Z,2.40
2019-04-07T11:03:29.542Z,2.30
2019-04-07T11:04:29.539Z,2.30
2019-04-07T11:05:30.376Z,2.30
2019-04-07T11:06:29.532Z,2.10
2019-04-07T11:07:29.512Z,2.40
2019-04-07T11:08:29.734Z,2.40
2019-04-07T11:09:29.999Z,2.50
2019-04-07T11:10:34.897Z,2.30
2019-04-07T11:11:30.475Z,2.40
2019-04-07T11:12:29.465Z,2.50
2019-04-07T11:13:29.926Z,2.50
2019-04-07T11:14:29.423Z,2.60
2019-04-07T11:15:29.410Z,2.50
2019-04-07T11:16:29.594Z,2.50
2019-04-07T11:17:29.390Z,2.40
2019-04-07T11:18:29.490Z,2.20
2019-04-07T11:19:29.375Z,2.30
2019-04-07T11:20:29.999Z,2.40
2019-04-07T11:21:30.255Z,2.20
2019-04-07T11:22:29.638Z,2.10
2019-04-07T11:23:29.556Z,2.30
2019-04-07T11:24:31.516Z,2.50
2019-04-07T11:25:29.548Z,2.20
2019-04-07T11:26:29.915Z,2.20
2019-04-07T11:27:29.491Z,2.30
2019-04-07T11:28:29.269Z,2.20
2019-04-07T11:29:29.572Z,2.30
2019-04-07T11:30:29.254Z,2.00
2019-04-07T11:31:29.271Z,2.60
2019-04-07T11:32:29.265Z,1.90
2019-04-07T11:33:29.215Z,2.20
2019-04-07T11:34:29.334Z,2.20
2019-04-07T11:35:30.746Z,2.00
2019-04-07T11:36:29.838Z,2.20
2019-04-07T11:37:29.257Z,2.20
2019-04-07T11:38:29.203Z,1.80
2019-04-07T11:39:29.152Z,1.90
2019-04-07T11:40:30.384Z,1.90
2019-04-07T11:41:30.680Z,1.60
2019-04-07T11:42:29.486Z,1.70
2019-04-07T11:43:29.116Z,1.70
2019-04-07T11:44:29.357Z,1.70
2019-04-07T11:45:29.086Z,2.20
2019-04-07T11:46:29.513Z,1.80
2019-04-07T11:47:29.824Z,1.80
2019-04-07T11:48:29.461Z,1.70
2019-04-07T11:49:29.073Z,1.80
2019-04-07T11:50:29.696Z,2.00
2019-04-07T11:51:29.024Z,1.80
2019-04-07T11:52:29.129Z,1.60
2019-04-07T11:53:29.455Z,2.10
2019-04-07T11:54:29.572Z,1.90
2019-04-07T11:55:30.065Z,1.80
2019-04-07T11:56:29.638Z,1.60
2019-04-07T11:57:29.049Z,1.60
2019-04-07T11:58:32.251Z,1.70
2019-04-07T11:59:28.934Z,1.80
2019-04-07T12:00:29.938Z,1.50
2019-04-07T12:01:29.249Z,1.40
2019-04-07T12:02:28.908Z,1.80
2019-04-07T12:03:28.981Z,1.60
2019-04-07T12:04:29.521Z,1.40
2019-04-07T12:05:28.871Z,1.50
2019-04-07T12:06:28.878Z,1.30
2019-04-07T12:07:29.219Z,1.40
2019-04-07T12:08:33.564Z,1.30
2019-04-07T12:09:30.504Z,1.30
2019-04-07T12:10:28.954Z,1.20
2019-04-07T12:11:28.883Z,1.30
2019-04-07T12:12:28.935Z,1.30
2019-04-07T12:13:29.742Z,1.30
2019-04-07T12:14:28.881Z,1.50
2019-04-07T12:15:30.119Z,1.30
2019-04-07T12:16:30.391Z,1.30
2019-04-07T12:17:28.825Z,1.30
2019-04-07T12:18:28.765Z,1.50
2019-04-07T12:19:28.977Z,1.50
2019-04-07T12:20:33.495Z,1.50
2019-04-07T12:21:29.863Z,1.60
2019-04-07T12:22:28.807Z,1.40
2019-04-07T12:23:28.706Z,1.30
2019-04-07T12:24:30.450Z,1.60
2019-04-07T12:25:29.339Z,1.80
2019-04-07T12:26:28.647Z,1.70
2019-04-07T12:27:28.639Z,1.70
2019-04-07T12:28:28.647Z,1.40
2019-04-07T12:29:28.811Z,1.40
2019-04-07T12:30:28.664Z,1.60
2019-04-07T12:31:29.364Z,1.50
2019-04-07T12:32:29.239Z,1.50
2019-04-07T12:33:28.653Z,1.80
2019-04-07T12:34:28.740Z,1.50
2019-04-07T12:35:28.895Z,1.50
2019-04-07T12:36:30.843Z,1.60
2019-04-07T12:37:28.535Z,1.70
2019-04-07T12:38:28.521Z,2.00
2019-04-07T12:39:28.880Z,1.60
2019-04-07T12:40:29.013Z,1.50
2019-04-07T12:41:31.824Z,1.60
2019-04-07T12:42:28.924Z,1.50
2019-04-07T12:43:29.196Z,1.50
2019-04-07T12:44:28.931Z,1.50
2019-04-07T12:45:28.553Z,1.60
2019-04-07T12:46:28.977Z,1.80
2019-04-07T12:47:28.447Z,1.60
2019-04-07T12:48:30.637Z,1.80
2019-04-07T12:49:28.605Z,1.70
2019-04-07T12:50:28.398Z,1.60
2019-04-07T12:51:28.843Z,1.80
2019-04-07T12:52:30.870Z,1.70
2019-04-07T12:53:32.233Z,1.50
2019-04-07T12:54:29.345Z,1.70
2019-04-07T12:55:28.488Z,1.80
2019-04-07T12:56:31.732Z,1.70
2019-04-07T12:57:29.305Z,1.60
2019-04-07T12:58:28.299Z,1.90
2019-04-07T12:59:28.339Z,1.90
2019-04-07T13:00:28.881Z,1.60
2019-04-07T13:01:29.163Z,1.60
2019-04-07T13:02:28.514Z,1.70
2019-04-07T13:03:28.875Z,1.70
2019-04-07T13:04:28.464Z,1.60